x

Lake Winnipeg S. Basin (45140) Wave Buoy

3:00pm - Fri 25th Jul 2014 All times are UTC.

  • Sig Wave height 1.3ft
  • Peak Period 3s
  • Wind
    11mph, 13mph gusts
  • Sea Temp 69°f
  • Air Temp 68°f
  • Sea Pressure 1006mb

More Historic Weather Station data

Upgrade to MSW Pro to gain access to the past 30 days of data for over 8000 Wavebouys and Weather Stations around the globe.

Join Pro

Comparision Forecast

View Surf forecast
   
Fri 07/25 3:00pm 1.3ft 3s 11 13 mph 1006mb 69f 68f
2:00pm 1.3ft 3s 13
mph
1006.8mb 69f 67f
1:00pm 1.3ft 3s 11 13 mph 1006.9mb 69f 67f
12:00pm 1.6ft 3s 9 11 mph 1006.9mb 69f 67f
11:00am 1.3ft 3s 11 13 mph 1006.9mb 69f 67f
10:00am 1.3ft 3s 13 18 mph 1006.4mb 69f 67f
9:00am 1.3ft 2s 16 20 mph 1006.4mb 69f 68f
8:00am 1ft 2s 13 16 mph 1007.8mb 70f 69f
7:00am 1ft 2s 11
mph
1009.6mb 70f 69f
6:00am 1ft 2s 11 13 mph 1010.1mb 70f 70f
5:00am 0.7ft 2s 9 11 mph 1010mb 70f 70f
4:00am 0.7ft 2s 9
mph
1010.2mb 70f 71f
3:00am 0.7ft 2s 9 11 mph 1008.7mb 71f 71f
2:00am 0.7ft 2s 4
mph
1009.6mb 71f 71f
1:00am 0.7ft 2s 4
mph
1010.9mb 71f 72f
12:00am 0.7ft 2s 4
mph
1011.9mb 71f 73f
Thu 07/24 11:00pm 0.7ft 4s 2
mph
1012.1mb 71f 73f
10:00pm 0.7ft 5s 7
mph
1012.4mb 70f 72f
9:00pm 1ft 2s 7 9 mph 1013.1mb 70f 72f
8:00pm 1ft 3s 9 11 mph 1013mb 70f 71f
7:00pm 1ft 3s 4 7 mph 1014mb 69f 70f
6:00pm 1.3ft 3s 11 13 mph 1015.3mb 69f 69f
5:00pm 1.3ft 3s 11 13 mph 1016.9mb 69f 68f
4:00pm 1.3ft 2s 13 16 mph 1017.6mb 69f 67f
3:00pm 1ft 5s 9 13 mph 1018.2mb 69f 67f
2:00pm 1ft 3s 9 11 mph 1018.5mb 69f 66f
1:00pm 1ft 3s 7 9 mph 1018.9mb 69f 65f
12:00pm 1ft 2s 9
mph
1019.1mb 69f 65f
11:00am 0.7ft 2s 11 13 mph 1019.5mb 69f 66f
10:00am 0.7ft 2s 2 4 mph 1019.8mb 69f 66f
9:00am 0.7ft 2s 7
mph
1020.6mb 69f 66f
8:00am 0.7ft 2s 7 9 mph 1020.5mb 70f 67f
7:00am 0.7ft 2s 9 11 mph 1021.1mb 70f 66f
6:00am 0.7ft 2s 9 11 mph 1020.9mb 71f 68f
5:00am 0.7ft 2s 7 9 mph 1021.1mb 72f 70f
4:00am 0.7ft 2s 4
mph
1021.4mb 73f 70f
3:00am 0.7ft 2s 4
mph
1022mb 74f 70f
2:00am 0.7ft 3s 2 4 mph 1022.3mb 74f 71f
1:00am 0.7ft 4s  -  2 mph 1022.7mb 74f 72f
12:00am 0.7ft 4s 2
mph
1023.3mb 75f 72f
Wed 07/23 11:00pm 0.7ft 5s 4 7 mph 1023.8mb 75f 71f
10:00pm 0.7ft 5s 2 4 mph 1024.6mb 76f 70f
9:00pm 0.7ft 4s 2 4 mph 1025.3mb 74f 70f
8:00pm 0.7ft 3s 2 4 mph 1025.8mb 75f 69f
7:00pm 0.7ft 3s 2 4 mph 1026.2mb 72f 68f
6:00pm 0.7ft 3s 4
mph
1026.5mb 70f 67f
5:00pm 1ft 2s 4 7 mph 1027mb 69f 66f
4:00pm 1ft 3s 4 7 mph 1027.3mb 68f 65f
3:00pm 1ft 3s 2 9 mph 1027mb 67f 65f
2:00pm 1ft 2s 9 11 mph 1027.2mb 67f 64f
1:00pm 1ft 2s 9 11 mph 1026.8mb 67f 64f
12:00pm 1.3ft 3s 9 13 mph 1026.3mb 67f 64f
11:00am 1.3ft 3s 13 16 mph 1026.2mb 67f 64f
10:00am 1.3ft 3s 11 13 mph 1026.1mb 67f 64f
9:00am 1.3ft 3s 13 16 mph 1025.8mb 68f 64f
8:00am 1.6ft 3s 11 13 mph 1026mb 68f 64f
7:00am 1.6ft 3s 16 18 mph 1025.3mb 68f 64f
6:00am 1.6ft 3s 16 18 mph 1025.3mb 68f 64f
5:00am 1.6ft 3s 13 16 mph 1024.8mb 68f 64f
4:00am 1.6ft 3s 13 16 mph 1024.3mb 68f 64f
3:00am 1.6ft 3s 16 18 mph 1023.9mb 68f 65f
2:00am 1.6ft 3s 13 16 mph 1023.7mb 68f 66f
1:00am 2ft 4s 13 18 mph 1023.2mb 68f 66f
12:00am 2.5ft 4s 16 20 mph 1022.8mb 68f 67f
Tue 07/22 11:00pm 2.5ft 4s 18 20 mph 1022.3mb 68f 67f
10:00pm 2.5ft 3s 18 22 mph 1022mb 68f 67f
9:00pm 2.5ft 3s 18 22 mph 1021.7mb 68f 67f
8:00pm 2ft 3s 18 20 mph 1021.2mb 68f 68f
7:00pm 2ft 3s 16 18 mph 1020.7mb 68f 67f
6:00pm 1.6ft 3s 16 18 mph 1020.2mb 68f 68f
5:00pm 1ft 2s 16 20 mph 1019.6mb 68f 68f
4:00pm 1.3ft 3s 13
mph
1019.1mb 68f 67f
3:00pm 1.3ft 3s 9 11 mph 1018.2mb 67f 66f
2:00pm 2ft 3s 11 13 mph 1017.7mb 67f 65f
1:00pm 2ft 3s 16 18 mph 1016.9mb 67f 64f
12:00pm 2ft 3s 16 18 mph 1016.4mb 67f 65f
11:00am 2ft 3s 16 18 mph 1015.6mb 68f 65f
10:00am 2ft 3s 16 18 mph 1014.5mb 68f 66f
9:00am 1.6ft 3s 16 20 mph 1013.6mb 68f 67f
8:00am 2ft 4s 16 18 mph 1012.7mb 68f 67f
7:00am 2ft 4s 16 18 mph 1011.8mb 68f 68f
6:00am 2.5ft 3s 16 20 mph 1012mb 69f 69f
5:00am 2ft 4s 18 22 mph 1011.2mb 69f 70f
4:00am 1.3ft 2s 18 22 mph 1011.4mb 70f 71f
3:00am 1ft 2s 13 16 mph 1010mb 70f 72f
2:00am 0.7ft 2s 11
mph
1010.6mb 70f 71f
1:00am 0.7ft 2s 9 11 mph 1011.8mb 71f 72f
12:00am 0.7ft 2s 4 7 mph 1011.6mb 71f 73f
Mon 07/21 11:00pm 0.7ft 2s 2 4 mph 1012.1mb 71f 73f
10:00pm 0.7ft 2s 9
mph
1011mb 72f 73f
9:00pm 0.7ft 4s 7
mph
1011.6mb 73f 74f
8:00pm 0.7ft 2s 2 4 mph 1011.4mb 72f 74f
7:00pm 0.7ft 4s 4
mph
1011.5mb 72f 73f
6:00pm 0.7ft 4s 4
mph
1011.3mb 71f 71f
5:00pm 0.7ft 4s 4
mph
1011mb 70f 71f